sensor_id;sensor_type;location;lat;lon;timestamp;P1;durP1;ratioP1;P2;durP2;ratioP2
69053;SDS011;56125;52.242;4.756;2023-11-18T00:03:33;1.60;;;1.17;;
69053;SDS011;56125;52.242;4.756;2023-11-18T00:08:35;1.60;;;0.90;;
69053;SDS011;56125;52.242;4.756;2023-11-18T00:13:36;1.60;;;1.20;;
69053;SDS011;56125;52.242;4.756;2023-11-18T00:18:39;2.58;;;1.45;;
69053;SDS011;56125;52.242;4.756;2023-11-18T00:23:40;1.40;;;1.10;;
69053;SDS011;56125;52.242;4.756;2023-11-18T00:28:41;1.30;;;1.10;;
69053;SDS011;56125;52.242;4.756;2023-11-18T00:33:42;1.43;;;1.10;;
69053;SDS011;56125;52.242;4.756;2023-11-18T00:38:43;1.35;;;1.08;;
69053;SDS011;56125;52.242;4.756;2023-11-18T00:43:44;1.27;;;1.10;;
69053;SDS011;56125;52.242;4.756;2023-11-18T00:48:45;1.38;;;0.82;;
69053;SDS011;56125;52.242;4.756;2023-11-18T00:53:46;2.43;;;1.63;;
69053;SDS011;56125;52.242;4.756;2023-11-18T00:58:48;1.65;;;1.00;;
69053;SDS011;56125;52.242;4.756;2023-11-18T01:03:49;1.20;;;1.10;;
69053;SDS011;56125;52.242;4.756;2023-11-18T01:08:50;1.70;;;0.93;;
69053;SDS011;56125;52.242;4.756;2023-11-18T01:13:51;1.70;;;1.10;;
69053;SDS011;56125;52.242;4.756;2023-11-18T01:18:55;1.52;;;0.90;;
69053;SDS011;56125;52.242;4.756;2023-11-18T01:23:56;1.67;;;1.10;;
69053;SDS011;56125;52.242;4.756;2023-11-18T01:28:57;1.63;;;1.20;;
69053;SDS011;56125;52.242;4.756;2023-11-18T01:33:58;1.20;;;1.00;;
69053;SDS011;56125;52.242;4.756;2023-11-18T01:39:00;1.20;;;1.00;;
69053;SDS011;56125;52.242;4.756;2023-11-18T01:44:01;1.40;;;1.03;;
69053;SDS011;56125;52.242;4.756;2023-11-18T01:49:02;1.17;;;0.98;;
69053;SDS011;56125;52.242;4.756;2023-11-18T01:54:04;3.00;;;1.10;;
69053;SDS011;56125;52.242;4.756;2023-11-18T01:59:07;1.63;;;1.00;;
69053;SDS011;56125;52.242;4.756;2023-11-18T02:04:10;1.13;;;1.00;;
69053;SDS011;56125;52.242;4.756;2023-11-18T02:09:13;1.02;;;0.80;;
69053;SDS011;56125;52.242;4.756;2023-11-18T02:14:18;1.27;;;0.97;;
69053;SDS011;56125;52.242;4.756;2023-11-18T02:19:23;0.80;;;0.80;;
69053;SDS011;56125;52.242;4.756;2023-11-18T02:24:26;1.20;;;0.80;;
69053;SDS011;56125;52.242;4.756;2023-11-18T02:29:28;1.45;;;1.00;;
69053;SDS011;56125;52.242;4.756;2023-11-18T02:34:36;1.63;;;0.90;;
69053;SDS011;56125;52.242;4.756;2023-11-18T02:39:43;1.95;;;1.00;;
69053;SDS011;56125;52.242;4.756;2023-11-18T02:44:50;1.27;;;1.00;;
69053;SDS011;56125;52.242;4.756;2023-11-18T02:49:59;1.52;;;0.90;;
69053;SDS011;56125;52.242;4.756;2023-11-18T02:55:06;1.37;;;1.10;;
69053;SDS011;56125;52.242;4.756;2023-11-18T03:00:09;1.45;;;1.17;;
69053;SDS011;56125;52.242;4.756;2023-11-18T03:05:17;1.10;;;1.00;;
69053;SDS011;56125;52.242;4.756;2023-11-18T03:10:19;1.55;;;1.20;;
69053;SDS011;56125;52.242;4.756;2023-11-18T03:15:21;1.00;;;0.90;;
69053;SDS011;56125;52.242;4.756;2023-11-18T03:20:23;1.50;;;1.20;;
69053;SDS011;56125;52.242;4.756;2023-11-18T03:25:24;1.70;;;1.03;;
69053;SDS011;56125;52.242;4.756;2023-11-18T03:30:25;1.30;;;1.10;;
69053;SDS011;56125;52.242;4.756;2023-11-18T03:35:26;1.00;;;0.90;;
69053;SDS011;56125;52.242;4.756;2023-11-18T03:40:27;1.25;;;1.00;;
69053;SDS011;56125;52.242;4.756;2023-11-18T03:45:29;1.20;;;0.90;;
69053;SDS011;56125;52.242;4.756;2023-11-18T03:50:31;1.00;;;0.90;;
69053;SDS011;56125;52.242;4.756;2023-11-18T03:55:32;1.10;;;0.93;;
69053;SDS011;56125;52.242;4.756;2023-11-18T04:00:34;1.55;;;0.90;;
69053;SDS011;56125;52.242;4.756;2023-11-18T04:05:35;1.83;;;0.87;;
69053;SDS011;56125;52.242;4.756;2023-11-18T04:10:39;1.58;;;0.90;;
69053;SDS011;56125;52.242;4.756;2023-11-18T04:15:40;1.00;;;0.90;;
69053;SDS011;56125;52.242;4.756;2023-11-18T04:20:41;1.25;;;0.93;;
69053;SDS011;56125;52.242;4.756;2023-11-18T04:25:43;1.20;;;0.90;;
69053;SDS011;56125;52.242;4.756;2023-11-18T04:30:44;1.00;;;0.90;;
69053;SDS011;56125;52.242;4.756;2023-11-18T04:35:47;1.20;;;1.00;;
69053;SDS011;56125;52.242;4.756;2023-11-18T04:40:49;1.38;;;0.90;;
69053;SDS011;56125;52.242;4.756;2023-11-18T04:45:50;1.30;;;1.00;;
69053;SDS011;56125;52.242;4.756;2023-11-18T04:50:51;1.40;;;0.93;;
69053;SDS011;56125;52.242;4.756;2023-11-18T04:55:52;2.17;;;0.80;;
69053;SDS011;56125;52.242;4.756;2023-11-18T05:00:53;1.20;;;1.10;;
69053;SDS011;56125;52.242;4.756;2023-11-18T05:05:54;2.03;;;1.00;;
69053;SDS011;56125;52.242;4.756;2023-11-18T05:10:55;1.20;;;0.90;;
69053;SDS011;56125;52.242;4.756;2023-11-18T05:15:58;1.50;;;0.80;;
69053;SDS011;56125;52.242;4.756;2023-11-18T05:20:59;1.52;;;1.00;;
69053;SDS011;56125;52.242;4.756;2023-11-18T05:26:01;1.00;;;0.90;;
69053;SDS011;56125;52.242;4.756;2023-11-18T05:31:05;2.33;;;1.00;;
69053;SDS011;56125;52.242;4.756;2023-11-18T05:36:07;1.10;;;1.00;;
69053;SDS011;56125;52.242;4.756;2023-11-18T05:41:08;1.08;;;0.90;;
69053;SDS011;56125;52.242;4.756;2023-11-18T05:46:17;1.00;;;0.80;;
69053;SDS011;56125;52.242;4.756;2023-11-18T05:51:23;0.85;;;0.80;;
69053;SDS011;56125;52.242;4.756;2023-11-18T05:56:26;1.50;;;0.83;;
69053;SDS011;56125;52.242;4.756;2023-11-18T06:01:27;1.08;;;0.98;;
69053;SDS011;56125;52.242;4.756;2023-11-18T06:06:29;1.00;;;0.90;;
69053;SDS011;56125;52.242;4.756;2023-11-18T06:11:32;1.38;;;1.10;;
69053;SDS011;56125;52.242;4.756;2023-11-18T06:16:33;1.40;;;0.97;;
69053;SDS011;56125;52.242;4.756;2023-11-18T06:21:36;1.50;;;1.00;;
69053;SDS011;56125;52.242;4.756;2023-11-18T06:26:37;1.40;;;1.00;;
69053;SDS011;56125;52.242;4.756;2023-11-18T06:31:39;1.27;;;0.88;;
69053;SDS011;56125;52.242;4.756;2023-11-18T06:36:40;1.20;;;1.00;;
69053;SDS011;56125;52.242;4.756;2023-11-18T06:41:41;0.90;;;0.70;;
69053;SDS011;56125;52.242;4.756;2023-11-18T06:46:48;1.07;;;0.80;;
69053;SDS011;56125;52.242;4.756;2023-11-18T06:51:51;1.00;;;0.90;;
69053;SDS011;56125;52.242;4.756;2023-11-18T06:56:52;1.20;;;0.87;;
69053;SDS011;56125;52.242;4.756;2023-11-18T07:01:53;1.40;;;1.10;;
69053;SDS011;56125;52.242;4.756;2023-11-18T07:06:54;0.90;;;0.80;;
69053;SDS011;56125;52.242;4.756;2023-11-18T07:11:55;1.25;;;0.88;;
69053;SDS011;56125;52.242;4.756;2023-11-18T07:16:56;1.00;;;0.87;;
69053;SDS011;56125;52.242;4.756;2023-11-18T07:21:58;1.10;;;0.90;;
69053;SDS011;56125;52.242;4.756;2023-11-18T07:26:59;1.40;;;1.00;;
69053;SDS011;56125;52.242;4.756;2023-11-18T07:32:01;1.25;;;0.90;;
69053;SDS011;56125;52.242;4.756;2023-11-18T07:37:02;1.40;;;0.90;;
69053;SDS011;56125;52.242;4.756;2023-11-18T07:42:03;0.98;;;0.88;;
69053;SDS011;56125;52.242;4.756;2023-11-18T07:47:06;1.17;;;0.90;;
69053;SDS011;56125;52.242;4.756;2023-11-18T07:52:07;1.45;;;0.95;;
69053;SDS011;56125;52.242;4.756;2023-11-18T07:57:08;1.27;;;0.80;;
69053;SDS011;56125;52.242;4.756;2023-11-18T08:02:11;0.75;;;0.70;;
69053;SDS011;56125;52.242;4.756;2023-11-18T08:07:13;2.20;;;1.50;;
69053;SDS011;56125;52.242;4.756;2023-11-18T08:12:14;0.98;;;0.70;;
69053;SDS011;56125;52.242;4.756;2023-11-18T08:17:15;0.97;;;0.80;;
69053;SDS011;56125;52.242;4.756;2023-11-18T08:22:16;1.20;;;0.68;;
69053;SDS011;56125;52.242;4.756;2023-11-18T08:27:19;1.77;;;0.93;;
69053;SDS011;56125;52.242;4.756;2023-11-18T08:32:20;3.15;;;1.02;;
69053;SDS011;56125;52.242;4.756;2023-11-18T08:37:23;2.10;;;0.80;;
69053;SDS011;56125;52.242;4.756;2023-11-18T08:42:24;1.15;;;0.80;;
69053;SDS011;56125;52.242;4.756;2023-11-18T08:47:25;1.10;;;0.70;;
69053;SDS011;56125;52.242;4.756;2023-11-18T08:52:27;4.07;;;0.88;;
69053;SDS011;56125;52.242;4.756;2023-11-18T08:57:29;1.60;;;0.70;;
69053;SDS011;56125;52.242;4.756;2023-11-18T09:02:48;1.00;;;0.80;;
69053;SDS011;56125;52.242;4.756;2023-11-18T09:07:49;0.93;;;0.80;;
69053;SDS011;56125;52.242;4.756;2023-11-18T09:12:51;2.15;;;0.95;;
69053;SDS011;56125;52.242;4.756;2023-11-18T09:17:53;0.80;;;0.73;;
69053;SDS011;56125;52.242;4.756;2023-11-18T09:22:54;1.10;;;0.90;;
69053;SDS011;56125;52.242;4.756;2023-11-18T09:27:56;1.47;;;0.80;;
69053;SDS011;56125;52.242;4.756;2023-11-18T09:32:57;2.20;;;0.73;;
69053;SDS011;56125;52.242;4.756;2023-11-18T09:38:03;1.53;;;0.83;;
69053;SDS011;56125;52.242;4.756;2023-11-18T09:43:06;1.00;;;0.80;;
69053;SDS011;56125;52.242;4.756;2023-11-18T09:48:09;1.90;;;1.10;;
69053;SDS011;56125;52.242;4.756;2023-11-18T09:53:11;1.88;;;1.00;;
69053;SDS011;56125;52.242;4.756;2023-11-18T09:58:14;3.03;;;1.13;;
69053;SDS011;56125;52.242;4.756;2023-11-18T10:03:19;3.63;;;1.30;;
69053;SDS011;56125;52.242;4.756;2023-11-18T10:08:23;2.73;;;1.40;;
69053;SDS011;56125;52.242;4.756;2023-11-18T10:13:26;3.30;;;1.38;;
69053;SDS011;56125;52.242;4.756;2023-11-18T10:18:28;4.30;;;1.27;;
69053;SDS011;56125;52.242;4.756;2023-11-18T10:23:29;6.57;;;2.17;;
69053;SDS011;56125;52.242;4.756;2023-11-18T10:28:34;7.20;;;1.90;;
69053;SDS011;56125;52.242;4.756;2023-11-18T10:33:38;10.45;;;3.13;;
69053;SDS011;56125;52.242;4.756;2023-11-18T10:38:42;11.10;;;3.00;;
69053;SDS011;56125;52.242;4.756;2023-11-18T10:43:52;7.10;;;2.80;;
69053;SDS011;56125;52.242;4.756;2023-11-18T10:49:06;11.00;;;2.70;;
69053;SDS011;56125;52.242;4.756;2023-11-18T10:54:10;7.03;;;2.30;;
69053;SDS011;56125;52.242;4.756;2023-11-18T10:59:17;6.43;;;1.90;;
69053;SDS011;56125;52.242;4.756;2023-11-18T11:04:18;6.07;;;1.80;;
69053;SDS011;56125;52.242;4.756;2023-11-18T11:09:23;8.67;;;2.30;;
69053;SDS011;56125;52.242;4.756;2023-11-18T11:14:30;4.32;;;1.90;;
69053;SDS011;56125;52.242;4.756;2023-11-18T11:19:46;5.50;;;1.80;;
69053;SDS011;56125;52.242;4.756;2023-11-18T11:25:00;4.05;;;1.60;;
69053;SDS011;56125;52.242;4.756;2023-11-18T11:30:10;4.97;;;1.60;;
69053;SDS011;56125;52.242;4.756;2023-11-18T11:35:33;4.63;;;1.65;;
69053;SDS011;56125;52.242;4.756;2023-11-18T11:40:38;5.00;;;1.80;;
69053;SDS011;56125;52.242;4.756;2023-11-18T11:45:42;4.07;;;1.48;;
69053;SDS011;56125;52.242;4.756;2023-11-18T11:50:50;4.00;;;1.70;;
69053;SDS011;56125;52.242;4.756;2023-11-18T11:56:04;3.50;;;1.27;;
69053;SDS011;56125;52.242;4.756;2023-11-18T12:01:18;4.67;;;1.27;;
69053;SDS011;56125;52.242;4.756;2023-11-18T12:06:47;2.38;;;1.33;;
69053;SDS011;56125;52.242;4.756;2023-11-18T12:11:48;3.73;;;1.43;;
69053;SDS011;56125;52.242;4.756;2023-11-18T12:22:12;3.93;;;1.30;;
69053;SDS011;56125;52.242;4.756;2023-11-18T12:32:58;3.33;;;1.40;;
69053;SDS011;56125;52.242;4.756;2023-11-18T12:49:23;2.97;;;1.20;;
69053;SDS011;56125;52.242;4.756;2023-11-18T12:54:25;2.60;;;1.00;;
69053;SDS011;56125;52.242;4.756;2023-11-18T12:59:29;2.97;;;1.10;;
69053;SDS011;56125;52.242;4.756;2023-11-18T13:04:31;1.43;;;0.93;;
69053;SDS011;56125;52.242;4.756;2023-11-18T13:09:32;1.80;;;1.10;;
69053;SDS011;56125;52.242;4.756;2023-11-18T13:14:36;1.90;;;1.20;;
69053;SDS011;56125;52.242;4.756;2023-11-18T13:19:39;1.67;;;1.10;;
69053;SDS011;56125;52.242;4.756;2023-11-18T13:24:41;1.17;;;0.90;;
69053;SDS011;56125;52.242;4.756;2023-11-18T13:29:49;2.42;;;1.10;;
69053;SDS011;56125;52.242;4.756;2023-11-18T13:34:51;1.20;;;0.70;;
69053;SDS011;56125;52.242;4.756;2023-11-18T13:39:55;1.75;;;0.90;;
69053;SDS011;56125;52.242;4.756;2023-11-18T13:45:00;2.23;;;1.00;;
69053;SDS011;56125;52.242;4.756;2023-11-18T13:50:12;1.67;;;0.80;;
69053;SDS011;56125;52.242;4.756;2023-11-18T13:55:15;2.00;;;0.90;;
69053;SDS011;56125;52.242;4.756;2023-11-18T14:00:36;3.15;;;0.88;;
69053;SDS011;56125;52.242;4.756;2023-11-18T14:05:37;1.20;;;0.80;;
69053;SDS011;56125;52.242;4.756;2023-11-18T14:10:38;1.90;;;0.80;;
69053;SDS011;56125;52.242;4.756;2023-11-18T14:15:41;2.03;;;0.70;;
69053;SDS011;56125;52.242;4.756;2023-11-18T14:20:44;1.48;;;0.70;;
69053;SDS011;56125;52.242;4.756;2023-11-18T14:25:47;1.37;;;0.90;;
69053;SDS011;56125;52.242;4.756;2023-11-18T14:30:49;0.75;;;0.65;;
69053;SDS011;56125;52.242;4.756;2023-11-18T14:35:50;1.60;;;0.80;;
69053;SDS011;56125;52.242;4.756;2023-11-18T14:40:52;0.90;;;0.60;;
69053;SDS011;56125;52.242;4.756;2023-11-18T14:45:54;1.20;;;0.70;;
69053;SDS011;56125;52.242;4.756;2023-11-18T14:50:55;0.82;;;0.70;;
69053;SDS011;56125;52.242;4.756;2023-11-18T14:55:57;1.03;;;0.70;;
69053;SDS011;56125;52.242;4.756;2023-11-18T15:00:58;2.10;;;0.70;;
69053;SDS011;56125;52.242;4.756;2023-11-18T15:06:00;0.60;;;0.60;;
69053;SDS011;56125;52.242;4.756;2023-11-18T15:11:01;1.83;;;0.70;;
69053;SDS011;56125;52.242;4.756;2023-11-18T15:16:03;1.60;;;0.70;;
69053;SDS011;56125;52.242;4.756;2023-11-18T15:21:04;1.00;;;0.75;;
69053;SDS011;56125;52.242;4.756;2023-11-18T15:26:05;1.20;;;0.70;;
69053;SDS011;56125;52.242;4.756;2023-11-18T15:31:07;1.42;;;0.63;;
69053;SDS011;56125;52.242;4.756;2023-11-18T15:36:08;1.10;;;0.80;;
69053;SDS011;56125;52.242;4.756;2023-11-18T15:41:10;0.80;;;0.60;;
69053;SDS011;56125;52.242;4.756;2023-11-18T15:46:11;1.13;;;0.80;;
69053;SDS011;56125;52.242;4.756;2023-11-18T15:51:12;0.90;;;0.60;;
69053;SDS011;56125;52.242;4.756;2023-11-18T15:56:16;0.90;;;0.53;;
69053;SDS011;56125;52.242;4.756;2023-11-18T16:01:17;0.85;;;0.68;;
69053;SDS011;56125;52.242;4.756;2023-11-18T16:06:18;0.60;;;0.60;;
69053;SDS011;56125;52.242;4.756;2023-11-18T16:11:19;2.65;;;0.80;;
69053;SDS011;56125;52.242;4.756;2023-11-18T16:16:20;0.90;;;0.80;;
69053;SDS011;56125;52.242;4.756;2023-11-18T16:21:24;0.88;;;0.70;;
69053;SDS011;56125;52.242;4.756;2023-11-18T16:26:25;1.77;;;0.70;;
69053;SDS011;56125;52.242;4.756;2023-11-18T16:31:26;0.65;;;0.40;;
69053;SDS011;56125;52.242;4.756;2023-11-18T16:36:27;0.77;;;0.67;;
69053;SDS011;56125;52.242;4.756;2023-11-18T16:41:28;1.15;;;0.90;;
69053;SDS011;56125;52.242;4.756;2023-11-18T16:46:36;1.83;;;0.70;;
69053;SDS011;56125;52.242;4.756;2023-11-18T16:51:38;1.38;;;0.80;;
69053;SDS011;56125;52.242;4.756;2023-11-18T16:56:39;1.20;;;0.90;;
69053;SDS011;56125;52.242;4.756;2023-11-18T17:01:40;1.98;;;0.80;;
69053;SDS011;56125;52.242;4.756;2023-11-18T17:06:41;1.07;;;0.87;;
69053;SDS011;56125;52.242;4.756;2023-11-18T17:11:42;1.38;;;0.93;;
69053;SDS011;56125;52.242;4.756;2023-11-18T17:16:48;1.73;;;0.90;;
69053;SDS011;56125;52.242;4.756;2023-11-18T17:21:49;0.98;;;0.85;;
69053;SDS011;56125;52.242;4.756;2023-11-18T17:26:52;2.17;;;0.90;;
69053;SDS011;56125;52.242;4.756;2023-11-18T17:31:53;1.20;;;1.00;;
69053;SDS011;56125;52.242;4.756;2023-11-18T17:36:54;1.53;;;1.07;;
69053;SDS011;56125;52.242;4.756;2023-11-18T17:41:55;1.80;;;1.10;;
69053;SDS011;56125;52.242;4.756;2023-11-18T17:46:57;1.10;;;1.00;;
69053;SDS011;56125;52.242;4.756;2023-11-18T17:51:58;1.25;;;0.93;;
69053;SDS011;56125;52.242;4.756;2023-11-18T17:56:59;2.27;;;1.13;;
69053;SDS011;56125;52.242;4.756;2023-11-18T18:02:01;1.70;;;1.05;;
69053;SDS011;56125;52.242;4.756;2023-11-18T18:07:02;1.30;;;1.20;;
69053;SDS011;56125;52.242;4.756;2023-11-18T18:12:07;1.58;;;0.90;;
69053;SDS011;56125;52.242;4.756;2023-11-18T18:17:08;1.40;;;1.13;;
69053;SDS011;56125;52.242;4.756;2023-11-18T18:22:09;1.92;;;1.30;;
69053;SDS011;56125;52.242;4.756;2023-11-18T18:27:11;4.97;;;1.33;;
69053;SDS011;56125;52.242;4.756;2023-11-18T18:32:12;2.70;;;1.50;;
69053;SDS011;56125;52.242;4.756;2023-11-18T18:37:14;1.73;;;1.20;;
69053;SDS011;56125;52.242;4.756;2023-11-18T18:42:15;3.97;;;1.38;;
69053;SDS011;56125;52.242;4.756;2023-11-18T18:47:16;1.93;;;1.60;;
69053;SDS011;56125;52.242;4.756;2023-11-18T18:52:19;2.08;;;1.38;;
69053;SDS011;56125;52.242;4.756;2023-11-18T18:57:20;1.80;;;1.30;;
69053;SDS011;56125;52.242;4.756;2023-11-18T19:02:21;2.72;;;1.40;;
69053;SDS011;56125;52.242;4.756;2023-11-18T19:07:22;3.67;;;1.60;;
69053;SDS011;56125;52.242;4.756;2023-11-18T19:12:23;2.10;;;1.40;;
69053;SDS011;56125;52.242;4.756;2023-11-18T19:17:24;1.80;;;1.40;;
69053;SDS011;56125;52.242;4.756;2023-11-18T19:22:25;2.03;;;1.52;;
69053;SDS011;56125;52.242;4.756;2023-11-18T19:27:26;1.40;;;1.20;;
69053;SDS011;56125;52.242;4.756;2023-11-18T19:32:27;4.45;;;1.60;;
69053;SDS011;56125;52.242;4.756;2023-11-18T19:37:28;2.57;;;1.53;;
69053;SDS011;56125;52.242;4.756;2023-11-18T19:42:29;1.90;;;1.50;;
69053;SDS011;56125;52.242;4.756;2023-11-18T19:47:30;1.63;;;1.40;;
69053;SDS011;56125;52.242;4.756;2023-11-18T19:52:32;2.20;;;1.70;;
69053;SDS011;56125;52.242;4.756;2023-11-18T19:57:33;3.43;;;1.77;;
69053;SDS011;56125;52.242;4.756;2023-11-18T20:02:34;2.05;;;1.48;;
69053;SDS011;56125;52.242;4.756;2023-11-18T20:07:35;3.00;;;1.50;;
69053;SDS011;56125;52.242;4.756;2023-11-18T20:12:36;2.42;;;1.60;;
69053;SDS011;56125;52.242;4.756;2023-11-18T20:17:37;3.07;;;1.60;;
69053;SDS011;56125;52.242;4.756;2023-11-18T20:22:38;4.78;;;1.75;;
69053;SDS011;56125;52.242;4.756;2023-11-18T20:27:40;1.93;;;1.60;;
69053;SDS011;56125;52.242;4.756;2023-11-18T20:32:42;2.88;;;1.50;;
69053;SDS011;56125;52.242;4.756;2023-11-18T20:37:44;3.57;;;2.07;;
69053;SDS011;56125;52.242;4.756;2023-11-18T20:42:48;2.60;;;1.67;;
69053;SDS011;56125;52.242;4.756;2023-11-18T20:47:50;2.27;;;1.40;;
69053;SDS011;56125;52.242;4.756;2023-11-18T20:52:51;3.65;;;1.35;;
69053;SDS011;56125;52.242;4.756;2023-11-18T20:57:52;4.10;;;1.37;;
69053;SDS011;56125;52.242;4.756;2023-11-18T21:02:53;2.97;;;1.50;;
69053;SDS011;56125;52.242;4.756;2023-11-18T21:07:54;3.13;;;1.30;;
69053;SDS011;56125;52.242;4.756;2023-11-18T21:12:58;2.78;;;1.27;;
69053;SDS011;56125;52.242;4.756;2023-11-18T21:17:59;2.50;;;1.33;;
69053;SDS011;56125;52.242;4.756;2023-11-18T21:23:00;3.97;;;1.52;;
69053;SDS011;56125;52.242;4.756;2023-11-18T21:28:01;3.33;;;1.30;;
69053;SDS011;56125;52.242;4.756;2023-11-18T21:33:04;5.05;;;1.40;;
69053;SDS011;56125;52.242;4.756;2023-11-18T21:38:08;3.30;;;1.30;;
69053;SDS011;56125;52.242;4.756;2023-11-18T21:43:09;1.70;;;1.20;;
69053;SDS011;56125;52.242;4.756;2023-11-18T21:48:10;6.10;;;1.70;;
69053;SDS011;56125;52.242;4.756;2023-11-18T21:53:11;3.95;;;1.52;;
69053;SDS011;56125;52.242;4.756;2023-11-18T21:58:12;3.70;;;1.40;;
69053;SDS011;56125;52.242;4.756;2023-11-18T22:03:13;4.22;;;1.52;;
69053;SDS011;56125;52.242;4.756;2023-11-18T22:08:14;5.30;;;1.50;;
69053;SDS011;56125;52.242;4.756;2023-11-18T22:13:19;4.25;;;1.65;;
69053;SDS011;56125;52.242;4.756;2023-11-18T22:18:20;2.93;;;1.37;;
69053;SDS011;56125;52.242;4.756;2023-11-18T22:23:23;6.15;;;1.90;;
69053;SDS011;56125;52.242;4.756;2023-11-18T22:28:24;4.13;;;1.43;;
69053;SDS011;56125;52.242;4.756;2023-11-18T22:33:25;6.30;;;1.65;;
69053;SDS011;56125;52.242;4.756;2023-11-18T22:38:26;6.70;;;1.50;;
69053;SDS011;56125;52.242;4.756;2023-11-18T22:43:27;4.03;;;1.70;;
69053;SDS011;56125;52.242;4.756;2023-11-18T22:48:28;3.60;;;1.40;;
69053;SDS011;56125;52.242;4.756;2023-11-18T22:53:29;5.13;;;1.25;;
69053;SDS011;56125;52.242;4.756;2023-11-18T22:58:30;2.23;;;1.23;;
69053;SDS011;56125;52.242;4.756;2023-11-18T23:03:31;6.28;;;1.40;;
69053;SDS011;56125;52.242;4.756;2023-11-18T23:08:34;4.60;;;1.57;;
69053;SDS011;56125;52.242;4.756;2023-11-18T23:13:35;7.72;;;1.65;;
69053;SDS011;56125;52.242;4.756;2023-11-18T23:18:36;6.43;;;1.60;;
69053;SDS011;56125;52.242;4.756;2023-11-18T23:23:37;5.97;;;1.30;;
69053;SDS011;56125;52.242;4.756;2023-11-18T23:28:39;6.63;;;1.40;;
69053;SDS011;56125;52.242;4.756;2023-11-18T23:33:40;5.07;;;1.30;;
69053;SDS011;56125;52.242;4.756;2023-11-18T23:38:42;6.50;;;1.77;;
69053;SDS011;56125;52.242;4.756;2023-11-18T23:43:43;6.85;;;2.05;;
69053;SDS011;56125;52.242;4.756;2023-11-18T23:48:45;4.00;;;1.50;;
69053;SDS011;56125;52.242;4.756;2023-11-18T23:53:46;5.57;;;1.40;;
69053;SDS011;56125;52.242;4.756;2023-11-18T23:58:47;5.87;;;1.60;;
